createdAt,value
2018-07-16T00:00:00.158Z,60.72
2018-07-16T00:01:10.244Z,60.92
2018-07-16T00:02:20.102Z,60.82
2018-07-16T00:03:30.180Z,60.38
2018-07-16T00:04:39.988Z,60.47
2018-07-16T00:05:49.244Z,59.41
2018-07-16T00:06:58.774Z,60.85
2018-07-16T00:08:08.650Z,59.61
2018-07-16T00:09:18.727Z,59.32
2018-07-16T00:10:28.524Z,59.61
2018-07-16T00:11:38.323Z,59.22
2018-07-16T00:12:48.122Z,59.41
2018-07-16T00:13:57.703Z,58.94
2018-07-16T00:15:07.518Z,58.94
2018-07-16T00:16:17.589Z,58.55
2018-07-16T00:17:27.375Z,59.22
2018-07-16T00:18:37.446Z,59.03
2018-07-16T00:19:47.288Z,58.84
2018-07-16T00:20:57.354Z,58.36
2018-07-16T00:22:06.890Z,59.32
2018-07-16T00:23:16.972Z,59.58
2018-07-16T00:24:26.515Z,59.96
2018-07-16T00:25:36.359Z,60.92
2018-07-16T00:26:46.431Z,61.4
2018-07-16T00:27:56.514Z,62.26
2018-07-16T00:29:06.312Z,62.26
2018-07-16T00:30:16.118Z,61.98
2018-07-16T00:31:25.698Z,61.88
2018-07-16T00:32:35.790Z,62.07
2018-07-16T00:33:45.859Z,62.26
2018-07-16T00:34:55.663Z,62.45
2018-07-16T00:36:05.190Z,62.36
2018-07-16T00:37:15.316Z,62.62
2018-07-16T00:38:25.432Z,61.37
2018-07-16T00:39:35.223Z,60.31
2018-07-16T00:40:45.296Z,60.03
2018-07-16T00:41:55.113Z,60.7
2018-07-16T00:43:04.960Z,61.56
2018-07-16T00:44:14.803Z,61.56
2018-07-16T00:45:25.059Z,61.66
2018-07-16T00:46:35.142Z,61.85
2018-07-16T00:47:44.668Z,62.04
2018-07-16T00:48:54.552Z,63.48
2018-07-16T00:50:03.817Z,63
2018-07-16T00:51:13.628Z,63.76
2018-07-16T00:52:23.451Z,63.09
2018-07-16T00:53:33.243Z,63.54
2018-07-16T00:54:43.363Z,62.96
2018-07-16T00:55:53.601Z,63.26
2018-07-16T00:57:02.854Z,62.3
2018-07-16T00:58:12.652Z,62.3
2018-07-16T00:59:22.205Z,61.34
2018-07-16T01:00:31.522Z,61.72
2018-07-16T01:01:41.598Z,61.72
2018-07-16T01:02:51.404Z,61.24
2018-07-16T01:04:01.478Z,61.24
2018-07-16T01:05:11.261Z,60.28
2018-07-16T01:06:21.395Z,59.9
2018-07-16T01:07:31.204Z,60.19
2018-07-16T01:08:41.289Z,60.09
2018-07-16T01:09:51.085Z,60
2018-07-16T01:11:01.158Z,60.09
2018-07-16T01:12:11.008Z,60
2018-07-16T01:13:21.071Z,60.96
2018-07-16T01:14:30.593Z,60.57
2018-07-16T01:15:40.666Z,60.67
2018-07-16T01:16:50.732Z,60.76
2018-07-16T01:18:00.571Z,61.53
2018-07-16T01:19:10.106Z,61.82
2018-07-16T01:20:19.908Z,61.72
2018-07-16T01:21:29.965Z,61.79
2018-07-16T01:22:39.492Z,61.72
2018-07-16T01:23:49.081Z,61.88
2018-07-16T01:24:58.874Z,61.5
2018-07-16T01:26:08.679Z,61.88
2018-07-16T01:27:18.744Z,62.07
2018-07-16T01:28:28.796Z,62.46
2018-07-16T01:29:38.915Z,63.32
2018-07-16T01:30:48.974Z,62.93
2018-07-16T01:31:59.039Z,62.36
2018-07-16T01:33:08.314Z,61.31
2018-07-16T01:34:18.124Z,60.73
2018-07-16T01:35:28.256Z,61.11
2018-07-16T01:36:37.787Z,61.11
2018-07-16T01:37:47.582Z,61.88
2018-07-16T01:38:57.376Z,62.07
2018-07-16T01:40:06.654Z,62.26
2018-07-16T01:41:16.765Z,61.79
2018-07-16T01:42:26.826Z,61.88
2018-07-16T01:43:36.627Z,65.42
2018-07-16T01:44:46.692Z,67.54
2018-07-16T01:45:56.781Z,69.07
2018-07-16T01:47:06.629Z,68.01
2018-07-16T01:48:16.430Z,70.03
2018-07-16T01:49:25.965Z,70.6
2018-07-16T01:50:35.484Z,70.41
2018-07-16T01:51:45.269Z,71.17
2018-07-16T01:52:55.392Z,73.66
2018-07-16T01:54:05.441Z,73.19
2018-07-16T01:55:14.981Z,75.48
2018-07-16T01:56:25.038Z,75.29
2018-07-16T01:57:35.100Z,77.31
2018-07-16T01:58:44.698Z,77.21
2018-07-16T01:59:54.504Z,77.11
2018-07-16T02:01:04.576Z,76.69
2018-07-16T02:02:14.387Z,77.26
2018-07-16T02:03:24.478Z,77.17
2018-07-16T02:04:34.592Z,77.84
2018-07-16T02:05:43.840Z,78.89
2018-07-16T02:06:53.627Z,81.1
2018-07-16T02:08:02.904Z,82.63
2018-07-16T02:09:12.948Z,84.35
2018-07-16T02:10:23.048Z,83.2
2018-07-16T02:11:33.138Z,83.39
2018-07-16T02:12:42.929Z,83.39
2018-07-16T02:13:53.011Z,83.39
2018-07-16T02:15:02.805Z,83.11
2018-07-16T02:16:12.668Z,83.26
2018-07-16T02:17:22.736Z,83.93
2018-07-16T02:18:32.831Z,84.5
2018-07-16T02:19:42.901Z,84.69
2018-07-16T02:20:52.709Z,84.59
2018-07-16T02:22:02.834Z,83.83
2018-07-16T02:23:12.959Z,83.54
2018-07-16T02:24:23.024Z,83.54
2018-07-16T02:25:32.824Z,84.59
2018-07-16T02:26:42.887Z,85.27
2018-07-16T02:27:52.737Z,86.13
2018-07-16T02:29:02.796Z,86.7
2018-07-16T02:30:12.326Z,88.04
2018-07-16T02:31:21.598Z,89.58
2018-07-16T02:32:31.404Z,90.44
2018-07-16T02:33:41.239Z,89.48
2018-07-16T02:34:51.313Z,89.67
2018-07-16T02:36:01.389Z,89.48
2018-07-16T02:37:10.934Z,90.53
2018-07-16T02:38:21.013Z,91.25
2018-07-16T02:39:30.588Z,91.44
2018-07-16T02:40:40.402Z,92.4
2018-07-16T02:41:50.497Z,92.78
2018-07-16T02:43:00.300Z,94.02
2018-07-16T02:44:10.378Z,93.64
2018-07-16T02:45:20.481Z,94.02
2018-07-16T02:46:30.282Z,94.79
2018-07-16T02:47:40.364Z,94.45
2018-07-16T02:48:50.422Z,96.13
2018-07-16T02:50:00.233Z,96.75
2018-07-16T02:51:10.402Z,96.56
2018-07-16T02:52:20.481Z,95.98
2018-07-16T02:53:30.564Z,96.08
2018-07-16T02:54:40.646Z,96.56
2018-07-16T02:55:50.729Z,98
2018-07-16T02:57:00.905Z,98.38
2018-07-16T02:58:11.008Z,98.09
2018-07-16T02:59:21.086Z,97.71
2018-07-16T03:04:43.007Z,98.05
2018-07-16T03:05:53.147Z,97.9
2018-07-16T03:07:03.232Z,96.75
2018-07-16T03:08:12.772Z,98
2018-07-16T03:09:22.614Z,97.09
2018-07-16T03:10:32.717Z,96.18
2018-07-16T03:11:42.811Z,96.32
2018-07-16T03:12:52.347Z,95.84
2018-07-16T03:14:02.173Z,96.7
2018-07-16T03:15:12.313Z,96.8
2018-07-16T03:16:22.394Z,96.61
2018-07-16T03:17:32.466Z,96.13
2018-07-16T03:18:42.246Z,96.7
2018-07-16T03:19:51.785Z,96.61
2018-07-16T03:21:01.666Z,97.09
2018-07-16T03:22:11.466Z,97.18
2018-07-16T03:23:21.523Z,98.05
2018-07-16T03:24:31.658Z,98.91
2018-07-16T03:25:40.923Z,98.14
2018-07-16T03:26:51.042Z,98.14
2018-07-16T03:28:00.853Z,99.58
2018-07-16T03:29:10.166Z,99.99
2018-07-16T03:30:20.256Z,99.99
2018-07-16T03:31:30.436Z,99.99
2018-07-16T03:32:40.556Z,99.99
2018-07-16T03:33:50.628Z,99.99
2018-07-16T03:35:00.421Z,99.99
2018-07-16T03:36:10.478Z,99.99
2018-07-16T03:37:20.551Z,99.99
2018-07-16T03:38:30.395Z,99.99
2018-07-16T03:39:40.188Z,99.99
2018-07-16T03:40:49.992Z,99.99
2018-07-16T03:41:59.504Z,99.99
2018-07-16T03:43:09.032Z,99.99
2018-07-16T03:44:18.612Z,99.99
2018-07-16T03:45:28.409Z,99.99
2018-07-16T03:46:38.206Z,99.99
2018-07-16T03:47:48.008Z,99.99
2018-07-16T03:48:57.841Z,99.99
2018-07-16T03:50:07.691Z,99.99
2018-07-16T03:51:17.489Z,99.99
2018-07-16T03:52:27.033Z,99.99
2018-07-16T03:53:37.110Z,99.99
2018-07-16T03:54:46.917Z,99.99
2018-07-16T03:55:56.914Z,99.99
2018-07-16T03:57:06.976Z,99.99
2018-07-16T03:58:16.784Z,99.99
2018-07-16T03:59:26.576Z,99.99
2018-07-16T04:00:36.380Z,99.99
2018-07-16T04:01:46.244Z,99.99
2018-07-16T04:02:56.053Z,99.99
2018-07-16T04:04:05.861Z,99.99
2018-07-16T04:05:15.393Z,99.99
2018-07-16T04:06:24.912Z,99.99
2018-07-16T04:07:34.774Z,99.99
2018-07-16T04:08:44.292Z,99.99
2018-07-16T04:09:54.093Z,99.99
2018-07-16T04:11:03.904Z,99.99
2018-07-16T04:12:13.697Z,99.99
2018-07-16T04:13:23.533Z,99.99
2018-07-16T04:14:33.601Z,99.99
2018-07-16T04:15:43.413Z,99.99
2018-07-16T04:16:53.220Z,99.99
2018-07-16T04:18:03.024Z,99.99
2018-07-16T04:19:12.880Z,99.99
2018-07-16T04:20:22.961Z,99.99
2018-07-16T04:21:32.496Z,99.99
2018-07-16T04:22:42.297Z,99.99
2018-07-16T04:23:52.356Z,99.99
2018-07-16T04:25:02.475Z,99.99
2018-07-16T04:26:12.275Z,99.99
2018-07-16T04:27:21.803Z,99.99
2018-07-16T04:28:31.586Z,99.99
2018-07-16T04:29:41.659Z,99.99
2018-07-16T04:30:51.893Z,99.99
2018-07-16T04:32:02.322Z,99.99
2018-07-16T04:33:12.403Z,99.99
2018-07-16T04:34:22.489Z,99.99
2018-07-16T04:35:32.277Z,99.99
2018-07-16T04:36:42.124Z,99.99
2018-07-16T04:37:51.931Z,99.99
2018-07-16T04:39:01.992Z,99.99
2018-07-16T04:40:11.571Z,99.99
2018-07-16T04:41:21.372Z,99.99
2018-07-16T04:42:30.671Z,99.99
2018-07-16T04:43:40.769Z,99.99
2018-07-16T04:44:50.305Z,99.99
2018-07-16T04:46:00.103Z,99.99
2018-07-16T04:47:09.913Z,99.99
2018-07-16T04:48:20.025Z,99.99
2018-07-16T04:49:29.834Z,99.99
2018-07-16T04:50:39.890Z,99.68
2018-07-16T04:51:49.680Z,99.39
2018-07-16T04:52:59.484Z,99.99
2018-07-16T04:54:09.333Z,99.99
2018-07-16T04:55:19.403Z,99.99
2018-07-16T04:56:29.203Z,99.99
2018-07-16T04:57:39.279Z,99.99
2018-07-16T04:58:49.099Z,99.99
2018-07-16T04:59:59.202Z,99.99
2018-07-16T05:01:09.001Z,99.99
2018-07-16T05:02:19.095Z,99.99
2018-07-16T05:03:28.906Z,99.99
2018-07-16T05:04:38.707Z,99.99
2018-07-16T05:05:48.563Z,99.99
2018-07-16T05:06:58.622Z,99.99
2018-07-16T05:08:08.421Z,99.58
2018-07-16T05:09:18.482Z,99.39
2018-07-16T05:10:28.614Z,98.43
2018-07-16T05:11:38.467Z,98.33
2018-07-16T05:12:48.275Z,97.76
2018-07-16T05:13:58.083Z,98.33
2018-07-16T05:15:07.875Z,97.9
2018-07-16T05:16:17.946Z,98.19
2018-07-16T05:17:28.077Z,97.76
2018-07-16T05:18:38.340Z,97.23
2018-07-16T05:19:48.143Z,96.47
2018-07-16T05:20:57.944Z,96.85
2018-07-16T05:22:08.018Z,96.18
2018-07-16T05:23:18.119Z,95.41
2018-07-16T05:24:28.185Z,94.64
2018-07-16T05:25:38.005Z,95.65
2018-07-16T05:26:47.540Z,95.41
2018-07-16T05:27:57.619Z,94.49
2018-07-16T05:29:07.821Z,94.12
2018-07-16T05:30:17.620Z,94.12
2018-07-16T05:31:27.485Z,93.21
2018-07-16T05:32:38.328Z,93.06
2018-07-16T05:33:49.006Z,92.48
2018-07-16T05:34:59.131Z,92.19
2018-07-16T05:36:09.191Z,92.1
2018-07-16T05:37:19.340Z,92.19
2018-07-16T05:38:29.149Z,91.14
2018-07-16T05:39:38.946Z,91.42
2018-07-16T05:40:48.814Z,90.18
2018-07-16T05:41:58.891Z,90.28
2018-07-16T05:43:08.944Z,90.18
2018-07-16T05:44:19.016Z,89.79
2018-07-16T05:45:28.830Z,89.7
2018-07-16T05:46:38.694Z,88.74
2018-07-16T05:47:48.779Z,87.98
2018-07-16T05:48:58.572Z,88.35
2018-07-16T05:50:08.376Z,88.35
2018-07-16T05:51:18.445Z,88.17
2018-07-16T05:52:28.030Z,87.49
2018-07-16T05:53:37.557Z,87.01
2018-07-16T05:54:47.618Z,87.01
2018-07-16T05:55:57.409Z,86.54
2018-07-16T05:57:07.237Z,86.38
2018-07-16T05:58:17.597Z,85.81
2018-07-16T05:59:27.746Z,85.33
2018-07-16T06:00:37.828Z,85.71
2018-07-16T06:01:47.621Z,84.47
2018-07-16T06:02:57.692Z,84.47
2018-07-16T06:04:07.830Z,83.89
2018-07-16T06:05:17.623Z,84.37
2018-07-16T06:06:27.436Z,83.89
2018-07-16T06:07:37.246Z,84.37
2018-07-16T06:08:47.415Z,84.37
2018-07-16T06:09:57.777Z,83.8
2018-07-16T06:11:07.303Z,84.47
2018-07-16T06:12:17.396Z,84.47
2018-07-16T06:13:27.472Z,84.66
2018-07-16T06:14:37.826Z,83.98
2018-07-16T06:15:47.678Z,83.98
2018-07-16T06:16:57.979Z,83.7
2018-07-16T06:18:07.524Z,83.31
2018-07-16T06:19:17.312Z,84.08
2018-07-16T06:20:26.878Z,85.24
2018-07-16T06:21:36.996Z,85.14
2018-07-16T06:22:47.053Z,85.52
2018-07-16T06:23:56.855Z,85.04
2018-07-16T06:25:07.072Z,85.91
2018-07-16T06:26:16.593Z,85.52
2018-07-16T06:27:26.469Z,85.81
2018-07-16T06:28:36.284Z,84.75
2018-07-16T06:29:46.357Z,84.66
2018-07-16T06:30:56.155Z,84.66
2018-07-16T06:32:06.239Z,83.98
2018-07-16T06:33:16.360Z,83.89
2018-07-16T06:34:26.152Z,84.18
2018-07-16T06:35:35.933Z,83.31
2018-07-16T06:36:46.008Z,82.74
2018-07-16T06:37:56.075Z,82.68
2018-07-16T06:39:06.266Z,82.78
2018-07-16T06:40:16.812Z,82.3
2018-07-16T06:41:28.977Z,82.3
2018-07-16T06:42:40.912Z,82.49
2018-07-16T06:43:50.981Z,82.1
2018-07-16T06:45:01.096Z,81.82
2018-07-16T06:46:10.887Z,82.01
2018-07-16T06:47:20.960Z,82.49
2018-07-16T06:48:31.017Z,82.49
2018-07-16T06:49:40.806Z,81.63
2018-07-16T06:50:50.940Z,80.96
2018-07-16T06:52:01.004Z,81.19
2018-07-16T06:53:10.817Z,80.71
2018-07-16T06:54:20.344Z,80.51
2018-07-16T06:55:30.486Z,80.51
2018-07-16T06:56:40.360Z,80.04
2018-07-16T06:57:50.178Z,79.75
2018-07-16T06:58:59.994Z,80.04
2018-07-16T07:00:09.813Z,79.79
2018-07-16T07:01:19.894Z,79.88
2018-07-16T07:02:29.745Z,79.4
2018-07-16T07:03:39.538Z,79.11
2018-07-16T07:04:49.639Z,78.92
2018-07-16T07:05:59.716Z,78.73
2018-07-16T07:07:08.970Z,79.11
2018-07-16T07:08:18.843Z,78.83
2018-07-16T07:09:28.932Z,78.53
2018-07-16T07:10:39.003Z,78.34
2018-07-16T07:11:48.539Z,78.48
2018-07-16T07:12:58.640Z,78
2018-07-16T07:14:08.216Z,77.61
2018-07-16T07:15:18.022Z,77.26
2018-07-16T07:16:28.089Z,77.26
2018-07-16T07:17:37.621Z,77.36
2018-07-16T07:18:47.416Z,77.56
2018-07-16T07:19:57.035Z,76.78
2018-07-16T07:21:07.113Z,76.11
2018-07-16T07:22:17.176Z,75.82
2018-07-16T07:23:26.967Z,76.25
2018-07-16T07:24:36.754Z,75.76
2018-07-16T07:25:46.352Z,75.38
2018-07-16T07:26:56.156Z,74.8
2018-07-16T07:28:06.237Z,74.84
2018-07-16T07:29:16.335Z,74.74
2018-07-16T07:30:25.881Z,74.13
2018-07-16T07:31:35.506Z,73.74
2018-07-16T07:32:45.570Z,73.97
2018-07-16T07:33:55.094Z,73.58
2018-07-16T07:35:04.478Z,72.91
2018-07-16T07:36:14.684Z,72.53
2018-07-16T07:37:24.534Z,72.33
2018-07-16T07:38:34.626Z,72.24
2018-07-16T07:39:44.748Z,72.14
2018-07-16T07:40:54.556Z,71.95
2018-07-16T07:42:04.112Z,71.56
2018-07-16T07:43:14.224Z,71.5
2018-07-16T07:44:24.034Z,71.41
2018-07-16T07:45:34.114Z,70.92
2018-07-16T07:46:43.659Z,70.35
2018-07-16T07:47:53.732Z,70.64
2018-07-16T07:49:03.852Z,70.25
2018-07-16T07:50:13.911Z,69.96
2018-07-16T07:51:23.982Z,69.77
2018-07-16T07:52:34.133Z,69.87
2018-07-16T07:53:43.929Z,69.67
2018-07-16T07:54:54.574Z,69.48
2018-07-16T07:56:05.772Z,69.38
2018-07-16T07:57:15.590Z,67.74
2018-07-16T07:58:25.389Z,67.94
2018-07-16T07:59:35.482Z,67.65
2018-07-16T08:00:45.348Z,67.46
2018-07-16T08:01:55.429Z,67.65
2018-07-16T08:03:05.525Z,67.07
2018-07-16T08:04:15.228Z,67.97
2018-07-16T08:05:25.311Z,67.94
2018-07-16T08:06:35.483Z,67.58
2018-07-16T08:07:45.561Z,67
2018-07-16T08:08:55.642Z,67.3
2018-07-16T08:10:04.929Z,66.72
2018-07-16T08:11:14.783Z,65.91
2018-07-16T08:12:24.977Z,66.14
2018-07-16T08:13:34.825Z,66.24
2018-07-16T08:14:44.921Z,65.56
2018-07-16T08:15:54.756Z,65.17
2018-07-16T08:17:04.366Z,64.98
2018-07-16T08:18:14.548Z,64.4
2018-07-16T08:19:24.779Z,64.31
2018-07-16T08:20:34.355Z,64.11
2018-07-16T08:21:43.960Z,63.92
2018-07-16T08:22:54.099Z,64.31
2018-07-16T08:24:03.713Z,64.69
2018-07-16T08:25:13.277Z,64.5
2018-07-16T08:26:23.457Z,64.4
2018-07-16T08:27:33.021Z,64.21
2018-07-16T08:28:43.671Z,64.59
2018-07-16T08:29:54.484Z,64.79
2018-07-16T08:31:04.066Z,64.43
2018-07-16T08:32:13.897Z,62.7
2018-07-16T08:33:25.388Z,62.22
2018-07-16T08:34:36.942Z,61.44
2018-07-16T08:35:47.848Z,60.86
2018-07-16T08:36:57.734Z,62.12
2018-07-16T08:38:08.211Z,62.7
2018-07-16T08:39:18.333Z,63.09
2018-07-16T08:40:28.201Z,62.7
2018-07-16T08:41:38.149Z,63.21
2018-07-16T08:42:47.991Z,63.5
2018-07-16T08:43:58.131Z,63.89
2018-07-16T08:45:07.971Z,64.08
2018-07-16T08:46:18.100Z,64.18
2018-07-16T08:47:28.022Z,64.18
2018-07-16T08:48:37.835Z,64.28
2018-07-16T08:49:47.632Z,63.98
2018-07-16T08:50:57.793Z,63.89
2018-07-16T08:52:07.321Z,64.59
2018-07-16T08:53:17.158Z,64.21
2018-07-16T08:54:26.691Z,64.01
2018-07-16T08:55:36.500Z,63.63
2018-07-16T08:56:46.308Z,63.34
2018-07-16T08:57:55.839Z,63.34
2018-07-16T08:59:05.976Z,63.24
2018-07-16T09:00:15.914Z,63.63
2018-07-16T09:01:25.167Z,63.66
2018-07-16T09:02:35.236Z,62.86
2018-07-16T09:03:45.338Z,63.43
2018-07-16T09:04:55.453Z,62.47
2018-07-16T09:06:04.996Z,62.79
2018-07-16T09:07:15.248Z,62.79
2018-07-16T09:08:24.430Z,62.98
2018-07-16T09:09:34.008Z,62.89
2018-07-16T09:10:44.130Z,62.12
2018-07-16T09:11:54.344Z,62.02
2018-07-16T09:13:03.904Z,62.12
2018-07-16T09:14:14.286Z,61.63
2018-07-16T09:15:24.083Z,61.25
2018-07-16T09:16:34.204Z,61.08
2018-07-16T09:17:44.016Z,61.08
2018-07-16T09:18:53.813Z,60.41
2018-07-16T09:20:03.612Z,59.83
2018-07-16T09:21:13.674Z,60.02
2018-07-16T09:22:23.806Z,59.92
2018-07-16T09:23:33.349Z,60.31
2018-07-16T09:24:43.471Z,60.5
2018-07-16T09:25:53.573Z,59.92
2018-07-16T09:27:03.643Z,59.44
2018-07-16T09:28:13.190Z,60.69
2018-07-16T09:29:23.263Z,60.69
2018-07-16T09:30:33.344Z,59.83
2018-07-16T09:31:43.143Z,59.63
2018-07-16T09:32:53.101Z,59.76
2018-07-16T09:34:03.179Z,59.86
2018-07-16T09:35:12.972Z,60.05
2018-07-16T09:36:23.047Z,59.38
2018-07-16T09:37:33.129Z,58.98
2018-07-16T09:38:42.944Z,59.47
2018-07-16T09:39:53.073Z,59.56
2018-07-16T09:41:03.146Z,59.66
2018-07-16T09:42:12.942Z,59.66
2018-07-16T09:43:22.752Z,58.89
2018-07-16T09:44:33.130Z,59.08
2018-07-16T09:45:43.394Z,58.7
2018-07-16T09:46:53.197Z,59.28
2018-07-16T09:48:03.289Z,58.92
2018-07-16T09:49:12.825Z,58.44
2018-07-16T09:50:22.899Z,58.72
2018-07-16T09:51:33.031Z,59.4
2018-07-16T09:52:42.567Z,58.63
2018-07-16T09:53:52.640Z,58.04
2018-07-16T09:55:02.734Z,58.44
2018-07-16T09:56:12.926Z,57.95
2018-07-16T09:57:23.012Z,57.66
2018-07-16T09:58:32.536Z,57.66
2018-07-16T09:59:42.628Z,56.88
2018-07-16T10:00:52.172Z,56.6
2018-07-16T10:02:02.242Z,56.14
2018-07-16T10:03:12.050Z,56.34
2018-07-16T10:04:22.120Z,55.94
2018-07-16T10:05:32.211Z,56.14
2018-07-16T10:06:42.292Z,54.98
2018-07-16T10:07:52.100Z,55.27
2018-07-16T10:09:01.965Z,54.39
2018-07-16T10:10:12.050Z,54.03
2018-07-16T10:11:22.147Z,54.33
2018-07-16T10:12:32.210Z,54.43
2018-07-16T10:13:41.996Z,54.33
2018-07-16T10:14:51.853Z,52.68
2018-07-16T10:16:01.668Z,52.97
2018-07-16T10:17:11.200Z,52.49
2018-07-16T10:18:21.276Z,52.87
2018-07-16T10:19:31.365Z,51.42
2018-07-16T10:20:41.392Z,51.13
2018-07-16T10:21:51.190Z,49.39
2018-07-16T10:23:00.723Z,49.77
2018-07-16T10:24:10.242Z,50.57
2018-07-16T10:25:20.322Z,49.51
2018-07-16T10:26:30.136Z,49.51
2018-07-16T10:27:39.938Z,49.02
2018-07-16T10:28:50.024Z,48.74
2018-07-16T10:30:00.107Z,48.37
2018-07-16T10:31:10.197Z,48.37
2018-07-16T10:32:20.321Z,48.18
2018-07-16T10:33:30.405Z,47.3
2018-07-16T10:34:40.545Z,46.92
2018-07-16T10:35:50.083Z,45.65
2018-07-16T10:37:00.155Z,44.88
2018-07-16T10:38:10.008Z,44.59
2018-07-16T10:39:19.878Z,44.01
2018-07-16T10:40:29.816Z,43.91
2018-07-16T10:41:39.976Z,44.01
2018-07-16T10:42:49.514Z,43.84
2018-07-16T10:43:59.651Z,44.03
2018-07-16T10:45:09.742Z,43.35
2018-07-16T10:46:19.815Z,42.29
2018-07-16T10:47:29.876Z,43.54
2018-07-16T10:48:39.416Z,44.61
2018-07-16T10:49:49.860Z,44.51
2018-07-16T10:50:59.439Z,43.95
2018-07-16T10:52:08.974Z,43.27
2018-07-16T10:53:18.502Z,42.5
2018-07-16T10:54:28.570Z,41.33
2018-07-16T10:55:38.679Z,40.95
2018-07-16T10:56:48.769Z,40.85
2018-07-16T10:57:58.297Z,41.33
2018-07-16T10:59:08.396Z,39.7
2018-07-16T11:00:18.490Z,38.93
2018-07-16T11:01:28.359Z,39.61
2018-07-16T11:02:38.425Z,41.16
2018-07-16T11:03:48.504Z,41.36
2018-07-16T11:04:58.576Z,39.32
2018-07-16T11:06:07.855Z,38.56
2018-07-16T11:07:17.983Z,38.37
2018-07-16T11:08:28.061Z,38.46
2018-07-16T11:09:38.142Z,37.59
2018-07-16T11:10:47.956Z,37.59
2018-07-16T11:11:57.760Z,37.68
2018-07-16T11:13:07.346Z,37.3
2018-07-16T11:14:17.437Z,37.49
2018-07-16T11:15:27.254Z,36.42
2018-07-16T11:16:37.327Z,37.12
2018-07-16T11:17:47.130Z,37.02
2018-07-16T11:18:57.261Z,36.15
2018-07-16T11:20:07.065Z,36.44
2018-07-16T11:21:16.874Z,34.79
2018-07-16T11:22:26.688Z,33.43
2018-07-16T11:23:36.503Z,35
2018-07-16T11:24:46.023Z,34.52
2018-07-16T11:25:56.108Z,33.15
2018-07-16T11:27:05.930Z,34.52
2018-07-16T11:28:15.748Z,33.15
2018-07-16T11:29:25.818Z,33.93
2018-07-16T11:30:35.940Z,33.44
2018-07-16T11:31:45.477Z,34.33
2018-07-16T11:32:55.289Z,34.53
2018-07-16T11:34:05.105Z,34.14
2018-07-16T11:35:15.224Z,33.17
2018-07-16T11:36:25.099Z,32.99
2018-07-16T11:37:35.205Z,33.09
2018-07-16T11:38:45.016Z,31.92
2018-07-16T11:39:54.852Z,31.25
2018-07-16T11:41:04.116Z,32.15
2018-07-16T11:42:14.239Z,31.69
2018-07-16T11:43:24.324Z,31.02
2018-07-16T11:44:34.417Z,30.16
2018-07-16T11:45:44.514Z,30.09
2018-07-16T11:46:54.612Z,27.86
2018-07-16T11:48:04.195Z,26.7
2018-07-16T11:49:13.727Z,25.63
2018-07-16T11:50:23.537Z,25.76
2018-07-16T11:51:33.717Z,25.77
2018-07-16T11:52:43.583Z,25.31
2018-07-16T11:53:53.726Z,23.55
2018-07-16T11:55:03.539Z,22.67
2018-07-16T11:56:13.348Z,19.26
2018-07-16T11:57:22.878Z,19.95
2018-07-16T11:58:33.001Z,20.45
2018-07-16T11:59:43.153Z,21.15
2018-07-16T12:00:52.691Z,21.94
2018-07-16T12:02:02.788Z,21.94
2018-07-16T12:03:12.609Z,21.17
2018-07-16T12:04:22.764Z,20.29
2018-07-16T12:05:32.590Z,21.37
2018-07-16T12:06:42.417Z,21.19
2018-07-16T12:07:51.948Z,19.92
2018-07-16T12:09:01.774Z,20.52
2018-07-16T12:10:11.341Z,18.95
2018-07-16T12:11:21.489Z,17.57
2018-07-16T12:12:31.335Z,17.97
2018-07-16T12:13:41.364Z,17.78
2018-07-16T12:14:51.178Z,17.69
2018-07-16T12:16:01.294Z,16.81
2018-07-16T12:17:10.638Z,16.42
2018-07-16T12:18:20.729Z,16.32
2018-07-16T12:19:30.814Z,16.53
2018-07-16T12:20:41.025Z,16.74
2018-07-16T12:21:50.862Z,13.87
2018-07-16T12:23:00.746Z,14.17
2018-07-16T12:24:10.848Z,14.16
2018-07-16T12:25:20.942Z,14.16
2018-07-16T12:26:31.025Z,13.85
2018-07-16T12:27:41.125Z,13.76
2018-07-16T12:28:50.729Z,15.05
2018-07-16T12:30:00.814Z,15.36
2018-07-16T12:31:10.367Z,14.67
2018-07-16T12:32:20.448Z,13.28
2018-07-16T12:33:30.567Z,13.18
2018-07-16T12:34:40.714Z,13.87
2018-07-16T12:35:50.555Z,14.07
2018-07-16T12:37:00.641Z,12.49
2018-07-16T12:38:10.754Z,13.08
2018-07-16T12:39:20.579Z,13.47
2018-07-16T12:40:30.395Z,13.68
2018-07-16T12:41:40.325Z,14.17
2018-07-16T12:42:50.618Z,14.67
2018-07-16T12:44:00.704Z,13.87
2018-07-16T12:45:10.776Z,14.75
2018-07-16T12:46:20.919Z,14.95
2018-07-16T12:47:31.015Z,14.36
2018-07-16T12:48:40.555Z,14.26
2018-07-16T12:49:50.645Z,13.46
2018-07-16T12:51:00.487Z,13.18
2018-07-16T12:52:10.635Z,14.17
2018-07-16T12:53:19.910Z,14.16
2018-07-16T12:54:29.994Z,13.27
2018-07-16T12:55:40.245Z,14.25
2018-07-16T12:56:50.340Z,12.67
2018-07-16T12:58:00.219Z,13.56
2018-07-16T12:59:10.066Z,12.48
2018-07-16T13:00:20.174Z,13.17
2018-07-16T13:01:29.994Z,13.85
2018-07-16T13:02:40.085Z,13.37
2018-07-16T13:03:49.952Z,13.67
2018-07-16T13:04:59.484Z,13.18
2018-07-16T13:06:09.786Z,13.18
2018-07-16T13:07:20.221Z,14.17
2018-07-16T13:08:30.036Z,12.88
2018-07-16T13:09:40.182Z,12.88
2018-07-16T13:10:49.995Z,13.28
2018-07-16T13:12:00.095Z,13.28
2018-07-16T13:13:09.908Z,12.29
2018-07-16T13:14:19.999Z,12.29
2018-07-16T13:15:30.155Z,13.87
2018-07-16T13:16:40.250Z,13.98
2018-07-16T13:17:50.054Z,12.79
2018-07-16T13:19:00.150Z,12.01
2018-07-16T13:20:09.984Z,13.2
2018-07-16T13:21:19.915Z,12.61
2018-07-16T13:22:29.731Z,12.3
2018-07-16T13:23:39.554Z,12.4
2018-07-16T13:24:49.390Z,12.8
2018-07-16T13:25:59.210Z,12.5
2018-07-16T13:27:08.481Z,13
2018-07-16T13:28:18.570Z,13.19
2018-07-16T13:29:28.645Z,12.49
2018-07-16T13:30:38.727Z,12.49
2018-07-16T13:31:48.023Z,13.39
2018-07-16T13:32:58.159Z,13.1
2018-07-16T13:34:07.964Z,12.51
2018-07-16T13:35:18.068Z,12.71
2018-07-16T13:36:28.143Z,12.3
2018-07-16T13:37:37.429Z,12.51
2018-07-16T13:38:47.024Z,13.99
2018-07-16T13:39:57.109Z,13.9
2018-07-16T13:41:06.667Z,12.22
2018-07-16T13:42:16.485Z,12.42
2018-07-16T13:43:26.590Z,13.02
2018-07-16T13:44:36.745Z,12.73
2018-07-16T13:45:46.579Z,12.63
2018-07-16T13:46:56.397Z,12.44
2018-07-16T13:48:06.241Z,12.43
2018-07-16T13:49:16.073Z,12.53
2018-07-16T13:50:25.626Z,13.02
2018-07-16T13:51:35.721Z,12.54
2018-07-16T13:52:45.952Z,12.54
2018-07-16T13:53:56.174Z,12.54
2018-07-16T13:55:06.275Z,12.54
2018-07-16T13:56:16.420Z,12.73
2018-07-16T13:57:26.524Z,12.43
2018-07-16T13:58:36.645Z,13.23
2018-07-16T13:59:46.734Z,12.43
2018-07-16T14:00:56.823Z,12.43
2018-07-16T14:02:06.794Z,12.73
2018-07-16T14:03:17.167Z,12.43
2018-07-16T14:04:27.256Z,12.62
2018-07-16T14:05:37.365Z,12.73
2018-07-16T14:06:47.465Z,12.52
2018-07-16T14:07:57.350Z,12.52
2018-07-16T14:09:07.459Z,12.73
2018-07-16T14:10:17.545Z,12.54
2018-07-16T14:11:27.629Z,13.13
2018-07-16T14:12:37.711Z,12.64
2018-07-16T14:13:47.622Z,12.74
2018-07-16T14:14:57.721Z,11.65
2018-07-16T14:16:07.560Z,12.33
2018-07-16T14:17:17.655Z,12.43
2018-07-16T14:18:27.471Z,13.21
2018-07-16T14:19:37.590Z,13.21
2018-07-16T14:20:47.669Z,13.51
2018-07-16T14:21:57.752Z,13.31
2018-07-16T14:23:07.576Z,12.72
2018-07-16T14:24:17.673Z,13.21
2018-07-16T14:25:27.015Z,12.73
2018-07-16T14:26:37.112Z,13.32
2018-07-16T14:27:47.209Z,13.32
2018-07-16T14:28:57.304Z,12.73
2018-07-16T14:30:06.845Z,13.23
2018-07-16T14:31:16.599Z,13.23
2018-07-16T14:32:26.836Z,11.85
2018-07-16T14:33:36.670Z,11.64
2018-07-16T14:34:46.498Z,11.54
2018-07-16T14:35:56.321Z,12.03
2018-07-16T14:37:06.191Z,11.33
2018-07-16T14:38:16.291Z,12.43
2018-07-16T14:39:25.928Z,12.43
2018-07-16T14:40:36.821Z,12.24
2018-07-16T14:41:46.629Z,12.04
2018-07-16T14:42:56.502Z,11.95
2018-07-16T14:44:05.771Z,12.15
2018-07-16T14:45:15.589Z,10.66
2018-07-16T14:46:25.405Z,11.25
2018-07-16T14:47:35.301Z,11.46
2018-07-16T14:48:45.752Z,11.36
2018-07-16T14:49:55.579Z,11.16
2018-07-16T14:51:04.860Z,11.46
2018-07-16T14:52:14.692Z,11.76
2018-07-16T14:53:24.791Z,11.26
2018-07-16T14:54:34.650Z,11.76
2018-07-16T14:55:44.525Z,12.26
2018-07-16T14:56:54.619Z,12.15
2018-07-16T14:58:04.653Z,12.34
2018-07-16T14:59:14.487Z,12.45
2018-07-16T15:00:24.632Z,12.93
2018-07-16T15:01:34.746Z,12.84
2018-07-16T15:02:44.842Z,12.83
2018-07-16T15:03:54.659Z,13.23
2018-07-16T15:05:04.747Z,13.23
2018-07-16T15:06:14.084Z,13.53
2018-07-16T15:07:24.163Z,13.13